»·PEaware :: SWA1705 KLAS-KSNA

SWA1705 :: KLAS-KSNA

FLIGHT INFORMATION

Flight Status: Arrived
Operator:
Southwest Airlines
More flights by this operator :: More flights under this callsign
Pilot: Cody B. (17747)
Aircraft: BOEING 737-800
(B738)
More flights by this aircraft type
Origin: KLAS McCarran Intl
United States
Destination: KSNA John Wayne-Orange Co
United States
More flights between these airports :: More routes between these airports
Route: BOACH8 WHIGG FEYLA DSNEE3
File this flight plan on PilotEdge
Remarks:
Altitude:
(Current/Filed)
28,000ft
Speed:
(Current/Filed)
450kts
Departed: 12-Apr-18 01:58 PM
Arrived: 12-Apr-18 02:40 PM
Distance/Time
Traveled:
197nm/0:42
Distance/Time
To Go:
Arrived

Flight Plot

Page will automatically refresh every two minutes.

Flight plan parsing failed; only flown route is shown


Map Options




Map Legend


Flown Route
Filed Route
Departure Airport
Arrival Airport
Navaid (VOR, NDB)
Fix

Horizontal Profiles

Position Reports

Time Latitude Longitude Heading Altitude Ground
Speed
12-Apr-18 13:00 36.079927 -115.147118 56 2096ft 0kts
12-Apr-18 13:01 36.079927 -115.147118 56 2096ft 0kts
12-Apr-18 13:02 36.079927 -115.147118 56 2096ft 0kts
12-Apr-18 13:03 36.079927 -115.147118 56 2096ft 0kts
12-Apr-18 13:04 36.079927 -115.147118 56 2096ft 0kts
12-Apr-18 13:05 36.079926 -115.147118 56 2096ft 0kts
12-Apr-18 13:06 36.079927 -115.147118 56 2096ft 0kts
12-Apr-18 13:07 36.079927 -115.147118 56 2096ft 0kts
12-Apr-18 13:08 36.079927 -115.147118 56 2096ft 0kts
12-Apr-18 13:09 36.079927 -115.147118 56 2096ft 0kts
12-Apr-18 13:10 36.079927 -115.147118 56 2096ft 0kts
12-Apr-18 13:11 36.079927 -115.147118 56 2096ft 0kts
12-Apr-18 13:12 36.079927 -115.147118 56 2096ft 0kts
12-Apr-18 13:13 36.079926 -115.147118 56 2096ft 0kts
12-Apr-18 13:14 36.079927 -115.147118 56 2096ft 0kts
12-Apr-18 13:15 36.079927 -115.147118 56 2096ft 0kts
12-Apr-18 13:16 36.079927 -115.147118 56 2096ft 0kts
12-Apr-18 13:17 36.079927 -115.147118 56 2096ft 0kts
12-Apr-18 13:18 36.079927 -115.147118 56 2096ft 0kts
12-Apr-18 13:19 36.079927 -115.147118 56 2096ft 0kts
12-Apr-18 13:20 36.079927 -115.147118 56 2096ft 0kts
12-Apr-18 13:21 36.079926 -115.147118 56 2096ft 0kts
12-Apr-18 13:22 36.079927 -115.147118 56 2096ft 0kts
12-Apr-18 13:23 36.079927 -115.147118 56 2096ft 0kts
12-Apr-18 13:24 36.079927 -115.147118 56 2096ft 0kts
12-Apr-18 13:25 36.079927 -115.147118 56 2096ft 0kts
12-Apr-18 13:26 36.079927 -115.147118 56 2096ft 0kts
12-Apr-18 13:27 36.079927 -115.147118 56 2096ft 0kts
12-Apr-18 13:28 36.079927 -115.147118 56 2096ft 0kts
12-Apr-18 13:29 36.079927 -115.147118 56 2096ft 0kts
12-Apr-18 13:30 36.079926 -115.147118 56 2096ft 0kts
12-Apr-18 13:31 36.079927 -115.147118 56 2096ft 0kts
12-Apr-18 13:32 36.079927 -115.147118 56 2096ft 0kts
12-Apr-18 13:33 36.079927 -115.147118 56 2096ft 0kts
12-Apr-18 13:34 36.079927 -115.147118 56 2096ft 0kts
12-Apr-18 13:35 36.079927 -115.147118 56 2096ft 0kts
12-Apr-18 13:36 36.079927 -115.147118 56 2096ft 0kts
12-Apr-18 13:37 36.079927 -115.147118 56 2096ft 0kts
12-Apr-18 13:38 36.079927 -115.147118 56 2096ft 0kts
12-Apr-18 13:39 36.079927 -115.147118 56 2096ft 0kts
12-Apr-18 13:40 36.079927 -115.147118 56 2096ft 0kts
12-Apr-18 13:41 36.079926 -115.147118 56 2096ft 0kts
12-Apr-18 13:42 36.079658 -115.147500 58 2099ft 2kts
12-Apr-18 13:43 36.079806 -115.147855 155 2100ft 0kts
12-Apr-18 13:44 36.079806 -115.147855 155 2100ft 0kts
12-Apr-18 13:45 36.079805 -115.147854 155 2100ft 0kts
12-Apr-18 13:46 36.079336 -115.147558 154 2100ft 3kts
12-Apr-18 13:47 36.079214 -115.147488 155 2100ft 0kts
12-Apr-18 13:48 36.078630 -115.147011 129 2101ft 5kts
12-Apr-18 13:49 36.078250 -115.142442 90 2086ft 17kts
12-Apr-18 13:50 36.078254 -115.136303 89 2067ft 20kts
12-Apr-18 13:51 36.078262 -115.130883 89 2052ft 18kts
12-Apr-18 13:52 36.078260 -115.125345 89 2039ft 16kts
12-Apr-18 13:53 36.077807 -115.122055 131 2036ft 4kts
12-Apr-18 13:54 36.077307 -115.121406 161 2037ft 0kts
12-Apr-18 13:55 36.077262 -115.121390 164 2037ft 1kts
12-Apr-18 13:56 36.076414 -115.121853 266 2038ft 5kts
12-Apr-18 13:57 36.076370 -115.133867 270 2063ft 121kts
12-Apr-18 13:58 36.073963 -115.191653 271 4360ft 179kts
12-Apr-18 13:59 36.060794 -115.264512 225 6085ft 275kts
12-Apr-18 14:00 35.987484 -115.298277 201 6996ft 285kts
12-Apr-18 14:01 35.907139 -115.312483 187 9421ft 300kts
12-Apr-18 14:02 35.819393 -115.314593 177 12041ft 336kts
12-Apr-18 14:03 35.725547 -115.302147 179 15011ft 348kts
12-Apr-18 14:04 35.643443 -115.345792 231 17711ft 330kts
12-Apr-18 14:05 35.580475 -115.428737 233 20342ft 335kts
12-Apr-18 14:06 35.516884 -115.513573 234 22683ft 340kts
12-Apr-18 14:07 35.452919 -115.599450 234 24714ft 346kts
12-Apr-18 14:08 35.389941 -115.684129 234 26431ft 353kts
12-Apr-18 14:09 35.323218 -115.773471 235 27987ft 361kts
12-Apr-18 14:10 35.252201 -115.868669 235 27999ft 396kts
12-Apr-18 14:11 35.176091 -115.966792 234 27992ft 400kts
12-Apr-18 14:12 35.098836 -116.063987 234 27994ft 400kts
12-Apr-18 14:13 35.021459 -116.161091 234 27994ft 400kts
12-Apr-18 14:14 34.944144 -116.257916 234 27984ft 399kts
12-Apr-18 14:15 34.869679 -116.351173 235 28023ft 400kts
12-Apr-18 14:16 34.795778 -116.444977 236 27986ft 362kts
12-Apr-18 14:17 34.725897 -116.533590 237 25951ft 357kts
12-Apr-18 14:18 34.655992 -116.615194 229 24057ft 357kts
12-Apr-18 14:19 34.579932 -116.687900 229 22191ft 352kts
12-Apr-18 14:20 34.504278 -116.761094 231 20369ft 346kts
12-Apr-18 14:21 34.435577 -116.839624 234 18529ft 337kts
12-Apr-18 14:22 34.367956 -116.917998 234 16618ft 335kts
12-Apr-18 14:23 34.301291 -116.995062 233 14836ft 331kts
12-Apr-18 14:24 34.228608 -117.064190 220 13672ft 343kts
12-Apr-18 14:25 34.145376 -117.119639 212 13038ft 346kts
12-Apr-18 14:26 34.057650 -117.165541 211 12410ft 343kts
12-Apr-18 14:27 33.978708 -117.221869 235 11555ft 317kts
12-Apr-18 14:28 33.921483 -117.301226 236 10301ft 309kts
12-Apr-18 14:29 33.869870 -117.373993 236 9511ft 277kts
12-Apr-18 14:30 33.821623 -117.441490 236 8328ft 271kts
12-Apr-18 14:31 33.794482 -117.516276 269 7951ft 217kts
12-Apr-18 14:32 33.799493 -117.586027 282 7976ft 208kts
12-Apr-18 14:33 33.823374 -117.647784 301 7003ft 204kts
12-Apr-18 14:34 33.853740 -117.706768 301 5755ft 216kts
12-Apr-18 14:35 33.854753 -117.767308 222 4443ft 207kts
12-Apr-18 14:36 33.796978 -117.793389 196 3207ft 249kts
12-Apr-18 14:37 33.739502 -117.828302 212 1523ft 216kts
12-Apr-18 14:38 33.693299 -117.857275 218 371ft 153kts
12-Apr-18 14:39 33.670122 -117.872250 176 57ft 22kts
12-Apr-18 14:40 33.669251 -117.871737 136 57ft 0kts
12-Apr-18 14:41 33.669218 -117.871694 131 57ft 0kts
12-Apr-18 14:42 33.669424 -117.870642 44 56ft 7kts
12-Apr-18 14:43 33.670941 -117.869070 39 54ft 8kts
12-Apr-18 14:44 33.673159 -117.867212 43 52ft 9kts
12-Apr-18 14:45 33.675477 -117.865618 27 48ft 3kts
12-Apr-18 14:46 33.675582 -117.865375 109 48ft 1kts
12-Apr-18 14:47 33.675386 -117.864906 118 47ft 0kts
12-Apr-18 14:48 33.675386 -117.864906 118 47ft 0kts
12-Apr-18 14:49 33.675386 -117.864906 118 47ft 0kts
12-Apr-18 14:50 33.675386 -117.864906 118 47ft 0kts
12-Apr-18 14:51 33.675386 -117.864906 118 47ft 0kts
12-Apr-18 14:52 33.675386 -117.864906 118 47ft 0kts
12-Apr-18 14:53 33.675386 -117.864906 118 47ft 0kts

Navigation Log

Ident Type
Flight plan parsing failed, navigation log unavailable